createdAt,value
2019-03-22T00:01:45.692Z,72.98
2019-03-22T00:04:18.856Z,73.44
2019-03-22T00:06:52.279Z,73.49
2019-03-22T00:09:26.159Z,73.52
2019-03-22T00:11:59.259Z,73.65
2019-03-22T00:14:32.835Z,73.88
2019-03-22T00:17:05.621Z,73.99
2019-03-22T00:19:39.648Z,74.36
2019-03-22T00:22:12.357Z,74.82
2019-03-22T00:24:45.309Z,75.06
2019-03-22T00:27:18.910Z,75.35
2019-03-22T00:29:53.515Z,75.26
2019-03-22T00:32:26.209Z,75.13
2019-03-22T00:34:59.255Z,75.34
2019-03-22T00:37:31.908Z,75.35
2019-03-22T00:40:05.586Z,75.31
2019-03-22T00:42:38.502Z,75.29
2019-03-22T00:45:12.370Z,75.32
2019-03-22T00:47:47.751Z,74.92
2019-03-22T00:50:20.408Z,74.71
2019-03-22T00:52:52.800Z,74.80
2019-03-22T00:55:25.037Z,75.24
2019-03-22T00:57:57.994Z,75.70
2019-03-22T01:00:40.800Z,75.80
2019-03-22T01:03:14.824Z,75.60
2019-03-22T01:05:47.023Z,75.05
2019-03-22T01:08:20.659Z,74.52
2019-03-22T01:10:52.887Z,74.71
2019-03-22T01:13:25.152Z,74.35
2019-03-22T01:15:58.512Z,73.91
2019-03-22T01:18:31.188Z,73.51
2019-03-22T01:21:03.998Z,73.48
2019-03-22T01:23:37.034Z,73.38
2019-03-22T01:26:09.620Z,73.17
2019-03-22T01:28:42.182Z,73.08
2019-03-22T01:31:14.500Z,73.26
2019-03-22T01:33:47.669Z,73.53
2019-03-22T01:36:21.193Z,73.58
2019-03-22T01:38:54.035Z,73.85
2019-03-22T01:41:27.087Z,73.69
2019-03-22T01:43:59.431Z,73.84
2019-03-22T01:46:32.138Z,74.05
2019-03-22T01:49:04.743Z,74.07
2019-03-22T01:51:37.305Z,74.05
2019-03-22T01:54:09.695Z,74.46
2019-03-22T01:56:41.971Z,74.44
2019-03-22T01:59:14.569Z,74.52
2019-03-22T02:01:47.028Z,74.50
2019-03-22T02:04:21.470Z,74.18
2019-03-22T02:06:53.697Z,74.24
2019-03-22T02:09:26.103Z,74.17
2019-03-22T02:11:58.354Z,74.11
2019-03-22T02:14:31.724Z,73.85
2019-03-22T02:17:04.193Z,73.72
2019-03-22T02:19:36.641Z,73.39
2019-03-22T02:22:09.066Z,73.40
2019-03-22T02:24:41.347Z,73.32
2019-03-22T02:27:14.954Z,73.34
2019-03-22T02:29:47.391Z,73.77
2019-03-22T02:32:19.838Z,73.83
2019-03-22T02:34:52.438Z,74.16
2019-03-22T02:37:26.484Z,73.92
2019-03-22T02:39:58.963Z,73.98
2019-03-22T02:42:31.361Z,73.95
2019-03-22T02:45:04.033Z,73.94
2019-03-22T02:47:36.961Z,73.66
2019-03-22T02:50:17.989Z,73.80
2019-03-22T02:52:45.531Z,73.71
2019-03-22T02:55:18.237Z,73.66
2019-03-22T02:57:50.957Z,73.79
2019-03-22T03:00:23.570Z,73.49
2019-03-22T03:02:55.809Z,73.59
2019-03-22T03:05:28.123Z,73.38
2019-03-22T03:08:00.288Z,73.47
2019-03-22T03:10:34.540Z,73.52
2019-03-22T03:13:07.114Z,73.47
2019-03-22T03:15:39.301Z,73.41
2019-03-22T03:18:12.126Z,72.88
2019-03-22T03:20:44.674Z,72.88
2019-03-22T03:23:17.207Z,73.21
2019-03-22T03:25:49.616Z,73.10
2019-03-22T03:28:36.028Z,73.17
2019-03-22T03:30:58.700Z,73.14
2019-03-22T03:33:31.181Z,73.41
2019-03-22T03:36:03.498Z,73.34
2019-03-22T03:38:35.964Z,73.27
2019-03-22T03:41:08.570Z,73.21
2019-03-22T03:43:40.699Z,73.00
2019-03-22T03:46:13.017Z,73.22
2019-03-22T03:48:45.842Z,73.23
2019-03-22T03:51:18.038Z,73.38
2019-03-22T03:53:50.506Z,73.32
2019-03-22T03:56:23.043Z,73.34
2019-03-22T03:58:57.159Z,73.40
2019-03-22T04:01:29.592Z,73.92
2019-03-22T04:04:01.747Z,73.97
2019-03-22T04:06:34.059Z,73.73
2019-03-22T04:09:09.027Z,72.80
2019-03-22T04:11:41.599Z,72.56
2019-03-22T04:14:13.801Z,72.31
2019-03-22T04:16:45.994Z,71.99
2019-03-22T04:19:18.313Z,71.84
2019-03-22T04:21:50.835Z,71.84
2019-03-22T04:24:23.554Z,71.85
2019-03-22T04:26:56.122Z,71.65
2019-03-22T04:29:28.390Z,71.47
2019-03-22T04:32:00.744Z,71.18
2019-03-22T04:34:33.126Z,70.75
2019-03-22T04:37:05.436Z,70.39
2019-03-22T04:39:37.863Z,69.98
2019-03-22T04:42:10.596Z,69.70
2019-03-22T04:44:42.874Z,69.90
2019-03-22T04:47:18.629Z,70.18
2019-03-22T04:49:52.469Z,70.37
2019-03-22T04:52:30.610Z,70.71
2019-03-22T04:55:03.932Z,70.65
2019-03-22T04:57:38.135Z,70.78
2019-03-22T05:00:10.876Z,70.98
2019-03-22T05:02:43.189Z,71.18
2019-03-22T05:05:15.754Z,71.36
2019-03-22T05:07:48.550Z,71.71
2019-03-22T05:10:22.033Z,72.12
2019-03-22T05:12:56.603Z,72.25
2019-03-22T05:15:30.900Z,72.53
2019-03-22T05:18:06.450Z,72.39
2019-03-22T05:20:40.837Z,72.22
2019-03-22T05:23:18.069Z,72.34
2019-03-22T05:25:52.409Z,72.66
2019-03-22T05:28:26.395Z,72.93
2019-03-22T05:31:25.547Z,72.84
2019-03-22T05:33:58.332Z,72.96
2019-03-22T05:36:31.695Z,73.02
2019-03-22T05:39:05.416Z,72.70
2019-03-22T05:41:39.131Z,71.83
2019-03-22T05:44:11.548Z,71.95
2019-03-22T05:46:44.671Z,72.05
2019-03-22T05:49:18.198Z,72.26
2019-03-22T05:51:50.646Z,72.49
2019-03-22T05:54:22.781Z,72.64
2019-03-22T05:56:56.951Z,72.79
2019-03-22T05:59:29.147Z,72.63
2019-03-22T06:02:01.812Z,72.56
2019-03-22T06:04:34.362Z,72.64
2019-03-22T06:07:06.684Z,72.49
2019-03-22T06:09:43.860Z,72.61
2019-03-22T06:12:16.132Z,72.70
2019-03-22T06:14:48.672Z,72.84
2019-03-22T06:17:21.122Z,72.96
2019-03-22T06:19:53.433Z,72.94
2019-03-22T06:22:25.752Z,72.91
2019-03-22T06:24:58.416Z,72.91
2019-03-22T06:27:30.914Z,72.72
2019-03-22T06:30:03.270Z,72.72
2019-03-22T06:32:35.689Z,72.52
2019-03-22T06:35:09.551Z,72.57
2019-03-22T06:37:42.344Z,72.34
2019-03-22T06:40:14.960Z,72.14
2019-03-22T06:42:47.794Z,72.09
2019-03-22T06:45:21.081Z,72.10
2019-03-22T06:47:53.394Z,71.51
2019-03-22T06:50:25.778Z,71.51
2019-03-22T06:52:57.923Z,71.08
2019-03-22T06:55:30.254Z,71.02
2019-03-22T06:58:04.378Z,70.66
2019-03-22T07:00:36.816Z,70.58
2019-03-22T07:03:09.204Z,70.47
2019-03-22T07:05:41.560Z,70.60
2019-03-22T07:08:15.060Z,70.40
2019-03-22T07:10:47.423Z,70.32
2019-03-22T07:13:19.666Z,70.28
2019-03-22T07:15:52.096Z,70.01
2019-03-22T07:18:24.434Z,70.07
2019-03-22T07:20:57.305Z,69.98
2019-03-22T07:23:29.423Z,69.78
2019-03-22T07:26:01.732Z,69.33
2019-03-22T07:28:33.967Z,69.30
2019-03-22T07:31:07.112Z,69.26
2019-03-22T07:33:40.532Z,68.94
2019-03-22T07:36:12.938Z,68.77
2019-03-22T07:38:45.459Z,68.29
2019-03-22T07:41:18.751Z,67.81
2019-03-22T07:43:51.276Z,68.01
2019-03-22T07:46:23.593Z,68.18
2019-03-22T07:48:55.998Z,68.09
2019-03-22T07:51:28.259Z,67.97
2019-03-22T07:54:00.481Z,67.86
2019-03-22T07:56:32.675Z,67.97
2019-03-22T07:59:04.813Z,67.81
2019-03-22T08:01:37.067Z,68.30
2019-03-22T08:04:09.546Z,69.87
2019-03-22T08:06:41.722Z,69.87
2019-03-22T08:09:13.895Z,70.46
2019-03-22T08:11:46.353Z,70.88
2019-03-22T08:14:18.613Z,71.54
2019-03-22T08:16:50.792Z,71.86
2019-03-22T08:19:23.671Z,71.41
2019-03-22T08:21:55.897Z,71.62
2019-03-22T08:24:28.099Z,71.16
2019-03-22T08:27:00.346Z,71.47
2019-03-22T08:29:33.060Z,71.60
2019-03-22T08:32:07.008Z,71.37
2019-03-22T08:34:39.352Z,71.22
2019-03-22T08:37:12.579Z,71.05
2019-03-22T08:39:46.319Z,71.30
2019-03-22T08:42:18.856Z,72.14
2019-03-22T08:44:51.123Z,72.11
2019-03-22T08:47:33.714Z,71.64
2019-03-22T08:50:00.446Z,71.91
2019-03-22T08:52:32.775Z,71.86
2019-03-22T08:55:05.857Z,71.74
2019-03-22T08:57:38.017Z,71.23
2019-03-22T09:00:11.060Z,72.35
2019-03-22T09:02:43.485Z,71.95
2019-03-22T09:05:16.115Z,72.43
2019-03-22T09:07:48.508Z,72.64
2019-03-22T09:10:20.974Z,74.96
2019-03-22T09:12:54.203Z,74.91
2019-03-22T09:15:26.456Z,74.99
2019-03-22T09:18:00.361Z,75.16
2019-03-22T09:20:32.673Z,74.35
2019-03-22T09:23:05.376Z,73.28
2019-03-22T09:25:38.168Z,74.22
2019-03-22T09:28:10.761Z,72.63
2019-03-22T09:30:43.316Z,72.45
2019-03-22T09:33:17.321Z,72.67
2019-03-22T09:35:49.541Z,72.74
2019-03-22T09:38:21.788Z,72.21
2019-03-22T09:40:54.766Z,72.14
2019-03-22T09:43:27.026Z,73.17
2019-03-22T09:46:05.852Z,72.21
2019-03-22T09:48:38.517Z,72.24
2019-03-22T09:51:11.315Z,72.13
2019-03-22T09:53:43.752Z,71.43
2019-03-22T09:56:16.212Z,71.72
2019-03-22T09:58:48.502Z,70.58
2019-03-22T10:01:23.957Z,71.18
2019-03-22T10:03:54.713Z,71.19
2019-03-22T10:06:27.012Z,71.37
2019-03-22T10:09:05.090Z,71.45
2019-03-22T10:11:36.703Z,70.54
2019-03-22T10:14:09.106Z,70.27
2019-03-22T10:16:41.901Z,69.65
2019-03-22T10:19:14.494Z,70.60
2019-03-22T10:21:47.710Z,70.08
2019-03-22T10:24:20.042Z,69.63
2019-03-22T10:26:52.362Z,69.84
2019-03-22T10:29:24.893Z,69.71
2019-03-22T10:31:57.107Z,70.20
2019-03-22T10:34:29.375Z,70.48
2019-03-22T10:37:01.909Z,69.79
2019-03-22T10:39:34.487Z,69.75
2019-03-22T10:42:06.802Z,69.36
2019-03-22T10:44:39.514Z,69.42
2019-03-22T10:47:13.308Z,69.06
2019-03-22T10:49:45.984Z,68.81
2019-03-22T10:52:18.695Z,68.01
2019-03-22T10:54:50.920Z,68.25
2019-03-22T10:57:24.387Z,68.52
2019-03-22T10:59:57.562Z,67.75
2019-03-22T11:02:29.953Z,68.18
2019-03-22T11:05:02.519Z,67.57
2019-03-22T11:07:35.472Z,67.74
2019-03-22T11:10:11.169Z,68.91
2019-03-22T11:12:44.581Z,67.92
2019-03-22T11:15:17.372Z,67.44
2019-03-22T11:17:50.518Z,67.11
2019-03-22T11:20:24.462Z,67.95
2019-03-22T11:22:56.695Z,68.81
2019-03-22T11:25:29.717Z,68.15
2019-03-22T11:28:02.014Z,68.91
2019-03-22T11:30:34.865Z,68.87
2019-03-22T11:33:07.455Z,69.33
2019-03-22T11:35:40.177Z,68.84
2019-03-22T11:38:12.729Z,68.95
2019-03-22T11:40:46.995Z,68.91
2019-03-22T11:43:19.579Z,69.30
2019-03-22T11:45:52.126Z,69.83
2019-03-22T11:48:24.583Z,69.39
2019-03-22T11:50:57.490Z,69.75
2019-03-22T11:53:29.838Z,69.67
2019-03-22T11:56:02.476Z,70.16
2019-03-22T11:58:37.135Z,69.75
2019-03-22T12:01:19.146Z,69.54
2019-03-22T12:03:45.076Z,68.90
2019-03-22T12:06:18.285Z,67.90
2019-03-22T12:08:51.714Z,67.20
2019-03-22T12:11:24.171Z,67.53
2019-03-22T12:13:57.383Z,67.86
2019-03-22T12:16:29.793Z,67.96
2019-03-22T12:19:01.963Z,68.33
2019-03-22T12:21:35.968Z,67.88
2019-03-22T12:24:08.605Z,67.91
2019-03-22T12:26:41.007Z,67.78
2019-03-22T12:29:13.455Z,68.32
2019-03-22T12:31:48.495Z,68.00
2019-03-22T12:34:21.993Z,68.32
2019-03-22T12:36:55.982Z,68.32
2019-03-22T12:39:29.323Z,68.42
2019-03-22T12:42:02.365Z,68.33
2019-03-22T12:44:34.920Z,67.82
2019-03-22T12:47:07.755Z,67.92
2019-03-22T12:49:40.347Z,68.30
2019-03-22T12:52:15.302Z,68.89
2019-03-22T12:54:47.961Z,69.09
2019-03-22T12:57:20.616Z,69.04
2019-03-22T12:59:53.375Z,69.25
2019-03-22T13:02:26.120Z,70.31
2019-03-22T13:05:00.058Z,70.31
2019-03-22T13:07:33.047Z,70.13
2019-03-22T13:10:07.955Z,70.90
2019-03-22T13:12:40.787Z,71.34
2019-03-22T13:15:13.843Z,71.51
2019-03-22T13:17:47.135Z,71.62
2019-03-22T13:20:19.664Z,71.62
2019-03-22T13:22:53.480Z,71.93
2019-03-22T13:25:26.248Z,71.55
2019-03-22T13:27:58.579Z,71.80
2019-03-22T13:30:36.311Z,71.82
2019-03-22T13:33:09.764Z,71.30
2019-03-22T13:35:43.621Z,71.18
2019-03-22T13:38:16.096Z,71.19
2019-03-22T13:40:48.408Z,71.46
2019-03-22T13:43:20.856Z,71.38
2019-03-22T13:45:54.081Z,71.38
2019-03-22T13:48:26.399Z,71.82
2019-03-22T13:50:58.680Z,72.57
2019-03-22T13:53:30.896Z,73.03
2019-03-22T13:56:03.217Z,73.74
2019-03-22T13:58:36.442Z,74.10
2019-03-22T14:01:08.974Z,74.47
2019-03-22T14:03:42.309Z,75.53
2019-03-22T14:06:14.661Z,77.19
2019-03-22T14:08:47.277Z,77.19
2019-03-22T14:11:19.701Z,78.02
2019-03-22T14:13:53.500Z,78.30
2019-03-22T14:16:26.122Z,78.17
2019-03-22T14:19:00.071Z,78.15
2019-03-22T14:21:33.632Z,78.06
2019-03-22T14:24:07.498Z,78.87
2019-03-22T14:26:39.857Z,78.55
2019-03-22T14:29:12.234Z,78.67
2019-03-22T14:31:44.719Z,78.86
2019-03-22T14:34:17.316Z,79.52
2019-03-22T14:36:50.501Z,79.20
2019-03-22T14:39:23.608Z,79.79
2019-03-22T14:41:56.033Z,79.26
2019-03-22T14:44:28.432Z,78.85
2019-03-22T14:47:00.800Z,78.24
2019-03-22T14:49:39.013Z,78.12
2019-03-22T14:52:12.394Z,78.06
2019-03-22T14:54:44.850Z,78.27
2019-03-22T14:57:17.547Z,77.65
2019-03-22T14:59:58.855Z,78.13
2019-03-22T15:02:25.702Z,78.12
2019-03-22T15:04:57.982Z,78.27
2019-03-22T15:07:30.289Z,78.31
2019-03-22T15:10:02.576Z,78.33
2019-03-22T15:12:34.740Z,78.24
2019-03-22T15:15:29.970Z,78.31
2019-03-22T15:18:11.807Z,78.52
2019-03-22T15:20:58.048Z,78.38
2019-03-22T15:23:50.006Z,78.36
2019-03-22T15:26:59.805Z,78.47
2019-03-22T15:29:59.659Z,78.06
2019-03-22T15:33:08.884Z,78.15
2019-03-22T15:36:06.470Z,78.40
2019-03-22T15:38:59.829Z,78.53
2019-03-22T15:41:33.108Z,78.19
2019-03-22T15:44:05.411Z,75.26
2019-03-22T15:46:38.024Z,77.39
2019-03-22T15:49:10.524Z,77.79
2019-03-22T15:51:43.055Z,78.02
2019-03-22T15:54:15.928Z,78.09
2019-03-22T15:56:48.991Z,77.75
2019-03-22T15:59:21.737Z,77.23
2019-03-22T16:01:53.919Z,77.15
2019-03-22T16:04:26.284Z,76.74
2019-03-22T16:06:58.474Z,76.68
2019-03-22T16:09:31.137Z,76.41
2019-03-22T16:12:03.518Z,76.26
2019-03-22T16:14:35.704Z,75.72
2019-03-22T16:17:08.027Z,74.88
2019-03-22T16:19:40.412Z,75.16
2019-03-22T16:22:12.953Z,74.97
2019-03-22T16:24:45.072Z,74.45
2019-03-22T16:27:17.329Z,74.45
2019-03-22T16:29:49.649Z,74.60
2019-03-22T16:32:21.847Z,74.37
2019-03-22T16:34:53.998Z,74.26
2019-03-22T16:37:26.166Z,74.65
2019-03-22T16:39:58.290Z,74.86
2019-03-22T16:42:30.488Z,75.22
2019-03-22T16:45:03.748Z,75.21
2019-03-22T16:47:36.425Z,75.49
2019-03-22T16:50:23.459Z,75.59
2019-03-22T16:52:55.665Z,76.33
2019-03-22T16:55:28.225Z,76.21
2019-03-22T16:58:00.605Z,76.35
2019-03-22T17:00:33.007Z,76.91
2019-03-22T17:03:07.927Z,77.46
2019-03-22T17:05:40.217Z,77.60
2019-03-22T17:08:13.938Z,78.11
2019-03-22T17:10:46.199Z,78.37
2019-03-22T17:13:18.542Z,78.25
2019-03-22T17:15:50.799Z,78.21
2019-03-22T17:18:23.579Z,78.24
2019-03-22T17:20:56.028Z,78.96
2019-03-22T17:23:28.408Z,79.86
2019-03-22T17:26:01.868Z,80.08
2019-03-22T17:28:34.326Z,79.74
2019-03-22T17:31:06.693Z,80.04
2019-03-22T17:33:38.909Z,80.35
2019-03-22T17:36:11.130Z,80.47
2019-03-22T17:38:43.651Z,81.00
2019-03-22T17:41:16.075Z,81.48
2019-03-22T17:43:48.280Z,81.89
2019-03-22T17:46:20.703Z,82.15
2019-03-22T17:48:52.906Z,82.23
2019-03-22T17:51:25.454Z,82.56
2019-03-22T17:53:57.781Z,82.83
2019-03-22T17:56:30.359Z,83.15
2019-03-22T17:59:02.877Z,83.95
2019-03-22T18:01:36.226Z,84.44
2019-03-22T18:04:08.792Z,84.82
2019-03-22T18:06:40.971Z,85.13
2019-03-22T18:09:13.198Z,85.17
2019-03-22T18:11:45.414Z,85.29
2019-03-22T18:14:17.750Z,85.36
2019-03-22T18:16:50.031Z,85.54
2019-03-22T18:19:24.562Z,85.71
2019-03-22T18:21:56.726Z,85.41
2019-03-22T18:24:29.128Z,85.08
2019-03-22T18:27:01.611Z,84.63
2019-03-22T18:29:33.850Z,84.56
2019-03-22T18:32:06.753Z,84.39
2019-03-22T18:34:38.948Z,84.22
2019-03-22T18:37:11.249Z,84.03
2019-03-22T18:39:43.464Z,83.74
2019-03-22T18:42:16.764Z,83.53
2019-03-22T18:44:49.113Z,83.52
2019-03-22T18:47:21.487Z,83.81
2019-03-22T18:49:53.766Z,83.94
2019-03-22T18:52:25.915Z,83.62
2019-03-22T18:54:58.280Z,83.41
2019-03-22T18:57:30.637Z,83.13
2019-03-22T19:00:05.421Z,83.11
2019-03-22T19:02:37.768Z,83.48
2019-03-22T19:05:10.323Z,83.26
2019-03-22T19:07:42.710Z,83.05
2019-03-22T19:10:17.758Z,82.90
2019-03-22T19:12:50.031Z,83.02
2019-03-22T19:15:22.334Z,82.81
2019-03-22T19:17:54.923Z,82.79
2019-03-22T19:20:27.366Z,82.77
2019-03-22T19:22:59.498Z,82.68
2019-03-22T19:25:31.841Z,82.79
2019-03-22T19:28:03.950Z,82.97
2019-03-22T19:30:36.546Z,82.96
2019-03-22T19:33:09.928Z,83.68
2019-03-22T19:35:42.274Z,83.68
2019-03-22T19:38:16.763Z,83.50
2019-03-22T19:40:49.143Z,83.44
2019-03-22T19:43:21.513Z,83.54
2019-03-22T19:45:53.691Z,83.46
2019-03-22T19:48:25.888Z,83.86
2019-03-22T19:50:58.192Z,84.34
2019-03-22T19:53:30.549Z,84.40
2019-03-22T19:56:03.707Z,84.97
2019-03-22T19:58:37.910Z,84.98
2019-03-22T20:01:10.200Z,85.21
2019-03-22T20:03:42.936Z,85.61
2019-03-22T20:06:15.815Z,85.94
2019-03-22T20:08:48.444Z,85.94
2019-03-22T20:11:21.024Z,86.04
2019-03-22T20:13:53.514Z,86.28
2019-03-22T20:16:25.956Z,86.15
2019-03-22T20:18:58.643Z,86.03
2019-03-22T20:21:31.246Z,86.02
2019-03-22T20:24:04.139Z,86.03
2019-03-22T20:26:36.806Z,86.37
2019-03-22T20:29:09.882Z,86.45
2019-03-22T20:31:42.113Z,86.79
2019-03-22T20:34:14.521Z,86.85
2019-03-22T20:36:47.193Z,87.40
2019-03-22T20:39:19.953Z,88.07
2019-03-22T20:41:52.453Z,88.06
2019-03-22T20:44:33.540Z,88.07
2019-03-22T20:46:58.975Z,88.22
2019-03-22T20:49:31.708Z,88.42
2019-03-22T20:52:04.615Z,88.80
2019-03-22T20:54:37.889Z,88.96
2019-03-22T20:57:11.127Z,89.19
2019-03-22T20:59:43.371Z,89.75
2019-03-22T21:02:16.044Z,90.02
2019-03-22T21:04:49.254Z,90.22
2019-03-22T21:07:21.818Z,90.43
2019-03-22T21:09:54.251Z,90.83
2019-03-22T21:12:26.803Z,91.02
2019-03-22T21:14:59.261Z,91.31
2019-03-22T21:17:31.487Z,90.83
2019-03-22T21:20:03.911Z,90.75
2019-03-22T21:22:36.434Z,90.17
2019-03-22T21:25:09.978Z,90.03
2019-03-22T21:27:42.292Z,90.22
2019-03-22T21:30:15.056Z,90.05
2019-03-22T21:32:47.331Z,89.76
2019-03-22T21:35:22.893Z,90.62
2019-03-22T21:37:54.142Z,92.45
2019-03-22T21:40:26.755Z,93.18
2019-03-22T21:42:59.101Z,93.22
2019-03-22T21:45:31.785Z,93.18
2019-03-22T21:48:04.180Z,93.12
2019-03-22T21:50:36.904Z,93.02
2019-03-22T21:53:11.484Z,92.69
2019-03-22T21:55:43.895Z,92.88
2019-03-22T21:58:16.318Z,93.37
2019-03-22T22:00:49.900Z,93.35
2019-03-22T22:03:22.554Z,93.64
2019-03-22T22:05:55.014Z,93.74
2019-03-22T22:08:27.336Z,94.29
2019-03-22T22:11:00.307Z,94.53
2019-03-22T22:13:33.786Z,94.60
2019-03-22T22:16:07.381Z,94.56
2019-03-22T22:18:39.880Z,95.12
2019-03-22T22:21:13.069Z,95.17
2019-03-22T22:23:45.828Z,95.38
2019-03-22T22:26:18.430Z,95.21
2019-03-22T22:28:51.350Z,95.35
2019-03-22T22:31:23.799Z,95.23
2019-03-22T22:33:56.635Z,95.31
2019-03-22T22:36:28.985Z,95.18
2019-03-22T22:39:03.221Z,95.27
2019-03-22T22:41:37.455Z,95.07
2019-03-22T22:44:10.226Z,94.80
2019-03-22T22:46:43.005Z,94.80
2019-03-22T22:49:15.447Z,94.83
2019-03-22T22:51:48.403Z,94.58
2019-03-22T22:54:20.729Z,94.54
2019-03-22T22:56:53.040Z,94.41
2019-03-22T22:59:25.548Z,94.27
2019-03-22T23:01:58.036Z,94.11
2019-03-22T23:04:32.230Z,94.00
2019-03-22T23:07:04.692Z,93.88
2019-03-22T23:09:37.262Z,94.61
2019-03-22T23:12:09.924Z,94.78
2019-03-22T23:14:42.311Z,94.65
2019-03-22T23:17:14.622Z,94.78
2019-03-22T23:19:51.050Z,95.04
2019-03-22T23:22:23.678Z,94.86
2019-03-22T23:24:56.088Z,94.75
2019-03-22T23:27:28.505Z,94.62
2019-03-22T23:30:01.524Z,94.53
2019-03-22T23:32:33.907Z,94.41
2019-03-22T23:35:07.389Z,94.31
2019-03-22T23:37:40.232Z,94.20
2019-03-22T23:40:12.886Z,94.35
2019-03-22T23:42:45.032Z,94.51
2019-03-22T23:45:17.358Z,94.34
2019-03-22T23:47:49.784Z,94.67
2019-03-22T23:50:22.175Z,94.67
2019-03-22T23:52:54.601Z,95.12
2019-03-22T23:55:28.775Z,95.05
2019-03-22T23:58:01.558Z,94.89
